sensor_id;sensor_type;location;lat;lon;timestamp;P1;durP1;ratioP1;P2;durP2;ratioP2
13805;SDS011;6974;53.606;9.872;2023-12-20T00:00:59;9.70;;;2.93;;
13805;SDS011;6974;53.606;9.872;2023-12-20T00:03:26;11.40;;;2.90;;
13805;SDS011;6974;53.606;9.872;2023-12-20T00:05:53;11.00;;;3.13;;
13805;SDS011;6974;53.606;9.872;2023-12-20T00:08:20;8.90;;;2.13;;
13805;SDS011;6974;53.606;9.872;2023-12-20T00:10:47;13.80;;;3.20;;
13805;SDS011;6974;53.606;9.872;2023-12-20T00:13:14;11.60;;;2.93;;
13805;SDS011;6974;53.606;9.872;2023-12-20T00:15:42;15.40;;;2.83;;
13805;SDS011;6974;53.606;9.872;2023-12-20T00:18:09;11.80;;;3.60;;
13805;SDS011;6974;53.606;9.872;2023-12-20T00:20:36;13.37;;;2.70;;
13805;SDS011;6974;53.606;9.872;2023-12-20T00:23:02;9.93;;;2.70;;
13805;SDS011;6974;53.606;9.872;2023-12-20T00:25:30;12.30;;;2.77;;
13805;SDS011;6974;53.606;9.872;2023-12-20T00:27:56;7.67;;;2.47;;
13805;SDS011;6974;53.606;9.872;2023-12-20T00:30:23;8.70;;;2.63;;
13805;SDS011;6974;53.606;9.872;2023-12-20T00:32:52;11.20;;;3.13;;
13805;SDS011;6974;53.606;9.872;2023-12-20T00:35:19;12.33;;;2.73;;
13805;SDS011;6974;53.606;9.872;2023-12-20T00:37:46;8.20;;;2.73;;
13805;SDS011;6974;53.606;9.872;2023-12-20T00:40:12;8.40;;;2.77;;
13805;SDS011;6974;53.606;9.872;2023-12-20T00:42:39;12.93;;;3.17;;
13805;SDS011;6974;53.606;9.872;2023-12-20T00:45:06;12.93;;;3.47;;
13805;SDS011;6974;53.606;9.872;2023-12-20T00:47:33;10.93;;;3.00;;
13805;SDS011;6974;53.606;9.872;2023-12-20T00:50:02;10.90;;;2.80;;
13805;SDS011;6974;53.606;9.872;2023-12-20T00:52:29;11.90;;;2.67;;
13805;SDS011;6974;53.606;9.872;2023-12-20T00:54:56;11.00;;;2.57;;
13805;SDS011;6974;53.606;9.872;2023-12-20T00:57:23;13.97;;;2.50;;
13805;SDS011;6974;53.606;9.872;2023-12-20T00:59:50;7.37;;;2.40;;
13805;SDS011;6974;53.606;9.872;2023-12-20T01:02:17;9.73;;;2.20;;
13805;SDS011;6974;53.606;9.872;2023-12-20T01:04:44;10.67;;;3.47;;
13805;SDS011;6974;53.606;9.872;2023-12-20T01:07:12;10.30;;;2.67;;
13805;SDS011;6974;53.606;9.872;2023-12-20T01:09:39;11.60;;;2.70;;
13805;SDS011;6974;53.606;9.872;2023-12-20T01:12:06;13.03;;;2.77;;
13805;SDS011;6974;53.606;9.872;2023-12-20T01:14:33;12.27;;;3.30;;
13805;SDS011;6974;53.606;9.872;2023-12-20T01:16:59;12.47;;;3.10;;
13805;SDS011;6974;53.606;9.872;2023-12-20T01:19:27;14.20;;;2.77;;
13805;SDS011;6974;53.606;9.872;2023-12-20T01:21:54;10.10;;;2.87;;
13805;SDS011;6974;53.606;9.872;2023-12-20T01:24:23;9.37;;;2.93;;
13805;SDS011;6974;53.606;9.872;2023-12-20T01:26:50;7.03;;;2.73;;
13805;SDS011;6974;53.606;9.872;2023-12-20T01:29:16;9.63;;;2.50;;
13805;SDS011;6974;53.606;9.872;2023-12-20T01:31:43;9.67;;;3.23;;
13805;SDS011;6974;53.606;9.872;2023-12-20T01:34:10;10.90;;;3.00;;
13805;SDS011;6974;53.606;9.872;2023-12-20T01:36:37;13.40;;;3.20;;
13805;SDS011;6974;53.606;9.872;2023-12-20T01:39:04;13.43;;;3.30;;
13805;SDS011;6974;53.606;9.872;2023-12-20T01:41:32;10.67;;;2.80;;
13805;SDS011;6974;53.606;9.872;2023-12-20T01:43:59;11.13;;;2.87;;
13805;SDS011;6974;53.606;9.872;2023-12-20T01:46:26;8.87;;;3.43;;
13805;SDS011;6974;53.606;9.872;2023-12-20T01:48:53;13.27;;;2.90;;
13805;SDS011;6974;53.606;9.872;2023-12-20T01:51:20;15.03;;;3.07;;
13805;SDS011;6974;53.606;9.872;2023-12-20T01:53:47;9.50;;;2.50;;
13805;SDS011;6974;53.606;9.872;2023-12-20T01:56:15;8.27;;;2.50;;
13805;SDS011;6974;53.606;9.872;2023-12-20T01:58:44;7.77;;;2.83;;
13805;SDS011;6974;53.606;9.872;2023-12-20T02:01:12;14.53;;;2.73;;
13805;SDS011;6974;53.606;9.872;2023-12-20T02:03:39;18.67;;;3.63;;
13805;SDS011;6974;53.606;9.872;2023-12-20T02:06:07;11.60;;;3.77;;
13805;SDS011;6974;53.606;9.872;2023-12-20T02:08:35;13.37;;;2.70;;
13805;SDS011;6974;53.606;9.872;2023-12-20T02:11:02;13.17;;;3.20;;
13805;SDS011;6974;53.606;9.872;2023-12-20T02:13:30;14.07;;;3.40;;
13805;SDS011;6974;53.606;9.872;2023-12-20T02:15:58;9.23;;;2.80;;
13805;SDS011;6974;53.606;9.872;2023-12-20T02:18:25;8.57;;;2.93;;
13805;SDS011;6974;53.606;9.872;2023-12-20T02:20:52;11.97;;;3.20;;
13805;SDS011;6974;53.606;9.872;2023-12-20T02:23:21;8.77;;;2.57;;
13805;SDS011;6974;53.606;9.872;2023-12-20T02:25:47;12.27;;;3.00;;
13805;SDS011;6974;53.606;9.872;2023-12-20T02:28:14;13.80;;;3.40;;
13805;SDS011;6974;53.606;9.872;2023-12-20T02:30:42;6.50;;;2.23;;
13805;SDS011;6974;53.606;9.872;2023-12-20T02:33:10;13.27;;;3.03;;
13805;SDS011;6974;53.606;9.872;2023-12-20T02:35:38;13.43;;;2.60;;
13805;SDS011;6974;53.606;9.872;2023-12-20T02:38:05;8.37;;;2.80;;
13805;SDS011;6974;53.606;9.872;2023-12-20T02:40:33;9.50;;;2.63;;
13805;SDS011;6974;53.606;9.872;2023-12-20T02:43:00;7.47;;;2.40;;
13805;SDS011;6974;53.606;9.872;2023-12-20T02:45:27;8.83;;;2.50;;
13805;SDS011;6974;53.606;9.872;2023-12-20T02:47:54;6.90;;;2.60;;
13805;SDS011;6974;53.606;9.872;2023-12-20T02:50:20;8.27;;;2.73;;
13805;SDS011;6974;53.606;9.872;2023-12-20T02:52:47;8.83;;;2.63;;
13805;SDS011;6974;53.606;9.872;2023-12-20T02:55:14;9.13;;;2.60;;
13805;SDS011;6974;53.606;9.872;2023-12-20T02:57:42;12.50;;;2.63;;
13805;SDS011;6974;53.606;9.872;2023-12-20T03:00:09;7.37;;;2.37;;
13805;SDS011;6974;53.606;9.872;2023-12-20T03:02:37;13.20;;;2.50;;
13805;SDS011;6974;53.606;9.872;2023-12-20T03:05:04;11.23;;;2.80;;
13805;SDS011;6974;53.606;9.872;2023-12-20T03:07:31;8.77;;;2.90;;
13805;SDS011;6974;53.606;9.872;2023-12-20T03:09:58;7.40;;;2.20;;
13805;SDS011;6974;53.606;9.872;2023-12-20T03:12:25;8.87;;;2.70;;
13805;SDS011;6974;53.606;9.872;2023-12-20T03:14:53;11.70;;;3.17;;
13805;SDS011;6974;53.606;9.872;2023-12-20T03:17:20;8.57;;;2.67;;
13805;SDS011;6974;53.606;9.872;2023-12-20T03:19:46;10.03;;;3.10;;
13805;SDS011;6974;53.606;9.872;2023-12-20T03:22:13;9.53;;;3.13;;
13805;SDS011;6974;53.606;9.872;2023-12-20T03:24:40;9.50;;;2.67;;
13805;SDS011;6974;53.606;9.872;2023-12-20T03:27:07;13.37;;;3.00;;
13805;SDS011;6974;53.606;9.872;2023-12-20T03:29:34;13.77;;;2.80;;
13805;SDS011;6974;53.606;9.872;2023-12-20T03:32:02;10.53;;;3.03;;
13805;SDS011;6974;53.606;9.872;2023-12-20T03:34:30;11.80;;;3.23;;
13805;SDS011;6974;53.606;9.872;2023-12-20T03:36:56;10.47;;;2.57;;
13805;SDS011;6974;53.606;9.872;2023-12-20T03:39:23;15.10;;;3.23;;
13805;SDS011;6974;53.606;9.872;2023-12-20T03:41:50;10.30;;;2.97;;
13805;SDS011;6974;53.606;9.872;2023-12-20T03:44:17;10.27;;;3.37;;
13805;SDS011;6974;53.606;9.872;2023-12-20T03:46:44;9.10;;;2.67;;
13805;SDS011;6974;53.606;9.872;2023-12-20T03:49:12;11.40;;;2.90;;
13805;SDS011;6974;53.606;9.872;2023-12-20T03:51:39;8.67;;;2.47;;
13805;SDS011;6974;53.606;9.872;2023-12-20T03:54:07;11.57;;;3.63;;
13805;SDS011;6974;53.606;9.872;2023-12-20T03:56:33;10.90;;;2.77;;
13805;SDS011;6974;53.606;9.872;2023-12-20T03:59:00;10.90;;;2.70;;
13805;SDS011;6974;53.606;9.872;2023-12-20T04:01:27;11.13;;;3.07;;
13805;SDS011;6974;53.606;9.872;2023-12-20T04:03:54;9.73;;;3.03;;
13805;SDS011;6974;53.606;9.872;2023-12-20T04:06:22;7.07;;;2.40;;
13805;SDS011;6974;53.606;9.872;2023-12-20T04:08:49;8.23;;;2.43;;
13805;SDS011;6974;53.606;9.872;2023-12-20T04:11:16;6.87;;;2.60;;
13805;SDS011;6974;53.606;9.872;2023-12-20T04:13:42;8.70;;;2.73;;
13805;SDS011;6974;53.606;9.872;2023-12-20T04:16:09;10.97;;;2.90;;
13805;SDS011;6974;53.606;9.872;2023-12-20T04:18:36;14.33;;;2.77;;
13805;SDS011;6974;53.606;9.872;2023-12-20T04:21:03;7.80;;;2.57;;
13805;SDS011;6974;53.606;9.872;2023-12-20T04:23:31;10.60;;;2.77;;
13805;SDS011;6974;53.606;9.872;2023-12-20T04:25:58;6.57;;;2.40;;
13805;SDS011;6974;53.606;9.872;2023-12-20T04:28:25;8.57;;;2.60;;
13805;SDS011;6974;53.606;9.872;2023-12-20T04:30:55;9.13;;;2.80;;
13805;SDS011;6974;53.606;9.872;2023-12-20T04:33:22;12.93;;;2.37;;
13805;SDS011;6974;53.606;9.872;2023-12-20T04:35:48;11.70;;;2.80;;
13805;SDS011;6974;53.606;9.872;2023-12-20T04:38:16;10.13;;;2.53;;
13805;SDS011;6974;53.606;9.872;2023-12-20T04:40:44;12.80;;;2.87;;
13805;SDS011;6974;53.606;9.872;2023-12-20T04:43:11;8.13;;;3.27;;
13805;SDS011;6974;53.606;9.872;2023-12-20T04:45:38;11.67;;;2.97;;
13805;SDS011;6974;53.606;9.872;2023-12-20T04:48:05;9.77;;;2.80;;
13805;SDS011;6974;53.606;9.872;2023-12-20T04:50:32;9.43;;;3.13;;
13805;SDS011;6974;53.606;9.872;2023-12-20T04:52:59;9.67;;;2.87;;
13805;SDS011;6974;53.606;9.872;2023-12-20T04:55:26;10.93;;;3.00;;
13805;SDS011;6974;53.606;9.872;2023-12-20T04:57:54;14.23;;;3.53;;
13805;SDS011;6974;53.606;9.872;2023-12-20T05:00:21;8.03;;;2.80;;
13805;SDS011;6974;53.606;9.872;2023-12-20T05:02:48;8.83;;;3.00;;
13805;SDS011;6974;53.606;9.872;2023-12-20T05:05:15;7.67;;;2.67;;
13805;SDS011;6974;53.606;9.872;2023-12-20T05:07:43;9.57;;;2.80;;
13805;SDS011;6974;53.606;9.872;2023-12-20T05:10:09;10.83;;;2.67;;
13805;SDS011;6974;53.606;9.872;2023-12-20T05:12:36;12.97;;;3.40;;
13805;SDS011;6974;53.606;9.872;2023-12-20T05:15:04;8.13;;;2.33;;
13805;SDS011;6974;53.606;9.872;2023-12-20T05:17:32;12.27;;;3.53;;
13805;SDS011;6974;53.606;9.872;2023-12-20T05:19:59;15.87;;;3.10;;
13805;SDS011;6974;53.606;9.872;2023-12-20T05:22:26;14.23;;;3.90;;
13805;SDS011;6974;53.606;9.872;2023-12-20T05:24:53;8.03;;;3.23;;
13805;SDS011;6974;53.606;9.872;2023-12-20T05:27:20;10.00;;;2.87;;
13805;SDS011;6974;53.606;9.872;2023-12-20T05:29:47;9.87;;;3.27;;
13805;SDS011;6974;53.606;9.872;2023-12-20T05:32:15;10.47;;;3.00;;
13805;SDS011;6974;53.606;9.872;2023-12-20T05:34:42;13.73;;;3.03;;
13805;SDS011;6974;53.606;9.872;2023-12-20T05:37:09;10.70;;;3.30;;
13805;SDS011;6974;53.606;9.872;2023-12-20T05:39:36;9.13;;;3.13;;
13805;SDS011;6974;53.606;9.872;2023-12-20T05:42:03;11.47;;;3.33;;
13805;SDS011;6974;53.606;9.872;2023-12-20T05:44:30;11.63;;;3.30;;
13805;SDS011;6974;53.606;9.872;2023-12-20T05:46:57;10.87;;;3.67;;
13805;SDS011;6974;53.606;9.872;2023-12-20T05:49:25;12.47;;;3.13;;
13805;SDS011;6974;53.606;9.872;2023-12-20T05:51:52;10.67;;;3.40;;
13805;SDS011;6974;53.606;9.872;2023-12-20T05:54:19;8.13;;;2.90;;
13805;SDS011;6974;53.606;9.872;2023-12-20T05:56:46;8.17;;;3.13;;
13805;SDS011;6974;53.606;9.872;2023-12-20T05:59:13;11.53;;;3.33;;
13805;SDS011;6974;53.606;9.872;2023-12-20T06:01:40;11.83;;;3.20;;
13805;SDS011;6974;53.606;9.872;2023-12-20T06:04:07;10.83;;;2.87;;
13805;SDS011;6974;53.606;9.872;2023-12-20T06:06:35;12.30;;;3.47;;
13805;SDS011;6974;53.606;9.872;2023-12-20T06:09:07;10.57;;;3.33;;
13805;SDS011;6974;53.606;9.872;2023-12-20T06:11:33;13.53;;;4.10;;
13805;SDS011;6974;53.606;9.872;2023-12-20T06:14:00;9.93;;;3.17;;
13805;SDS011;6974;53.606;9.872;2023-12-20T06:16:27;11.50;;;4.10;;
13805;SDS011;6974;53.606;9.872;2023-12-20T06:18:54;13.47;;;3.50;;
13805;SDS011;6974;53.606;9.872;2023-12-20T06:21:21;14.73;;;3.17;;
13805;SDS011;6974;53.606;9.872;2023-12-20T06:23:49;12.80;;;3.00;;
13805;SDS011;6974;53.606;9.872;2023-12-20T06:26:16;12.10;;;3.43;;
13805;SDS011;6974;53.606;9.872;2023-12-20T06:28:42;15.13;;;3.53;;
13805;SDS011;6974;53.606;9.872;2023-12-20T06:31:09;10.07;;;3.27;;
13805;SDS011;6974;53.606;9.872;2023-12-20T06:33:36;13.97;;;4.00;;
13805;SDS011;6974;53.606;9.872;2023-12-20T06:36:05;9.87;;;3.77;;
13805;SDS011;6974;53.606;9.872;2023-12-20T06:38:32;16.10;;;3.80;;
13805;SDS011;6974;53.606;9.872;2023-12-20T06:41:00;12.03;;;3.60;;
13805;SDS011;6974;53.606;9.872;2023-12-20T06:43:27;11.00;;;3.27;;
13805;SDS011;6974;53.606;9.872;2023-12-20T06:45:55;13.43;;;3.30;;
13805;SDS011;6974;53.606;9.872;2023-12-20T06:48:22;11.30;;;3.40;;
13805;SDS011;6974;53.606;9.872;2023-12-20T06:50:49;11.83;;;3.17;;
13805;SDS011;6974;53.606;9.872;2023-12-20T06:53:16;14.30;;;3.20;;
13805;SDS011;6974;53.606;9.872;2023-12-20T06:55:42;11.80;;;3.53;;
13805;SDS011;6974;53.606;9.872;2023-12-20T06:58:10;12.60;;;4.43;;
13805;SDS011;6974;53.606;9.872;2023-12-20T07:00:37;13.20;;;4.37;;
13805;SDS011;6974;53.606;9.872;2023-12-20T07:03:04;11.03;;;3.50;;
13805;SDS011;6974;53.606;9.872;2023-12-20T07:05:31;10.80;;;4.73;;
13805;SDS011;6974;53.606;9.872;2023-12-20T07:07:58;10.57;;;3.47;;
13805;SDS011;6974;53.606;9.872;2023-12-20T07:10:25;14.67;;;3.60;;
13805;SDS011;6974;53.606;9.872;2023-12-20T07:12:52;15.50;;;3.93;;
13805;SDS011;6974;53.606;9.872;2023-12-20T07:15:21;14.37;;;3.70;;
13805;SDS011;6974;53.606;9.872;2023-12-20T07:17:48;12.97;;;3.53;;
13805;SDS011;6974;53.606;9.872;2023-12-20T07:20:15;14.20;;;3.97;;
13805;SDS011;6974;53.606;9.872;2023-12-20T07:22:42;16.70;;;4.07;;
13805;SDS011;6974;53.606;9.872;2023-12-20T07:25:09;12.73;;;3.43;;
13805;SDS011;6974;53.606;9.872;2023-12-20T07:27:35;11.33;;;2.90;;
13805;SDS011;6974;53.606;9.872;2023-12-20T07:30:03;13.33;;;3.77;;
13805;SDS011;6974;53.606;9.872;2023-12-20T07:32:31;12.07;;;3.50;;
13805;SDS011;6974;53.606;9.872;2023-12-20T07:34:58;13.63;;;3.47;;
13805;SDS011;6974;53.606;9.872;2023-12-20T07:37:25;17.17;;;4.17;;
13805;SDS011;6974;53.606;9.872;2023-12-20T07:39:52;13.50;;;3.63;;
13805;SDS011;6974;53.606;9.872;2023-12-20T07:42:19;15.23;;;4.13;;
13805;SDS011;6974;53.606;9.872;2023-12-20T07:44:47;15.57;;;4.23;;
13805;SDS011;6974;53.606;9.872;2023-12-20T07:47:13;12.20;;;3.63;;
13805;SDS011;6974;53.606;9.872;2023-12-20T07:49:45;14.63;;;3.83;;
13805;SDS011;6974;53.606;9.872;2023-12-20T07:52:12;14.00;;;3.50;;
13805;SDS011;6974;53.606;9.872;2023-12-20T07:54:39;16.90;;;4.47;;
13805;SDS011;6974;53.606;9.872;2023-12-20T07:57:07;13.50;;;3.97;;
13805;SDS011;6974;53.606;9.872;2023-12-20T07:59:35;19.70;;;4.67;;
13805;SDS011;6974;53.606;9.872;2023-12-20T08:02:02;20.13;;;4.23;;
13805;SDS011;6974;53.606;9.872;2023-12-20T08:04:29;13.90;;;3.83;;
13805;SDS011;6974;53.606;9.872;2023-12-20T08:06:57;12.03;;;3.40;;
13805;SDS011;6974;53.606;9.872;2023-12-20T08:09:25;14.77;;;3.40;;
13805;SDS011;6974;53.606;9.872;2023-12-20T08:11:52;13.10;;;3.53;;
13805;SDS011;6974;53.606;9.872;2023-12-20T08:14:19;16.70;;;4.50;;
13805;SDS011;6974;53.606;9.872;2023-12-20T08:16:45;12.10;;;3.57;;
13805;SDS011;6974;53.606;9.872;2023-12-20T08:19:12;10.87;;;3.70;;
13805;SDS011;6974;53.606;9.872;2023-12-20T08:21:39;14.20;;;4.07;;
13805;SDS011;6974;53.606;9.872;2023-12-20T08:24:08;11.70;;;3.67;;
13805;SDS011;6974;53.606;9.872;2023-12-20T08:26:34;15.13;;;3.83;;
13805;SDS011;6974;53.606;9.872;2023-12-20T08:29:01;17.03;;;4.17;;
13805;SDS011;6974;53.606;9.872;2023-12-20T08:31:28;12.97;;;3.53;;
13805;SDS011;6974;53.606;9.872;2023-12-20T08:33:55;12.17;;;4.17;;
13805;SDS011;6974;53.606;9.872;2023-12-20T08:36:22;12.47;;;3.43;;
13805;SDS011;6974;53.606;9.872;2023-12-20T08:38:49;10.37;;;3.33;;
13805;SDS011;6974;53.606;9.872;2023-12-20T08:41:18;15.90;;;4.07;;
13805;SDS011;6974;53.606;9.872;2023-12-20T08:43:45;14.07;;;3.93;;
13805;SDS011;6974;53.606;9.872;2023-12-20T08:46:13;13.87;;;3.97;;
13805;SDS011;6974;53.606;9.872;2023-12-20T08:48:40;16.00;;;4.30;;
13805;SDS011;6974;53.606;9.872;2023-12-20T08:51:07;14.17;;;4.23;;
13805;SDS011;6974;53.606;9.872;2023-12-20T08:53:34;18.40;;;3.80;;
13805;SDS011;6974;53.606;9.872;2023-12-20T08:56:01;12.10;;;3.27;;
13805;SDS011;6974;53.606;9.872;2023-12-20T08:58:29;13.40;;;4.03;;
13805;SDS011;6974;53.606;9.872;2023-12-20T09:00:56;13.43;;;3.67;;
13805;SDS011;6974;53.606;9.872;2023-12-20T09:03:23;11.13;;;3.47;;
13805;SDS011;6974;53.606;9.872;2023-12-20T09:05:51;12.77;;;3.43;;
13805;SDS011;6974;53.606;9.872;2023-12-20T09:08:18;11.77;;;3.10;;
13805;SDS011;6974;53.606;9.872;2023-12-20T09:10:45;9.13;;;3.10;;
13805;SDS011;6974;53.606;9.872;2023-12-20T09:13:12;6.30;;;2.70;;
13805;SDS011;6974;53.606;9.872;2023-12-20T09:15:40;8.97;;;3.37;;
13805;SDS011;6974;53.606;9.872;2023-12-20T09:18:07;7.47;;;2.73;;
13805;SDS011;6974;53.606;9.872;2023-12-20T09:20:34;7.97;;;2.50;;
13805;SDS011;6974;53.606;9.872;2023-12-20T09:23:01;7.90;;;2.53;;
13805;SDS011;6974;53.606;9.872;2023-12-20T09:25:28;7.73;;;2.60;;
13805;SDS011;6974;53.606;9.872;2023-12-20T09:27:55;8.13;;;2.50;;
13805;SDS011;6974;53.606;9.872;2023-12-20T09:30:22;4.50;;;1.83;;
13805;SDS011;6974;53.606;9.872;2023-12-20T09:32:50;5.77;;;1.50;;
13805;SDS011;6974;53.606;9.872;2023-12-20T09:35:17;3.93;;;2.00;;
13805;SDS011;6974;53.606;9.872;2023-12-20T09:37:44;1.57;;;0.97;;
13805;SDS011;6974;53.606;9.872;2023-12-20T09:40:12;3.43;;;1.30;;
13805;SDS011;6974;53.606;9.872;2023-12-20T09:42:42;1.23;;;0.90;;
13805;SDS011;6974;53.606;9.872;2023-12-20T09:45:13;2.33;;;1.10;;
13805;SDS011;6974;53.606;9.872;2023-12-20T09:47:42;1.60;;;0.87;;
13805;SDS011;6974;53.606;9.872;2023-12-20T09:50:11;3.20;;;1.47;;
13805;SDS011;6974;53.606;9.872;2023-12-20T09:52:39;5.53;;;1.47;;
13805;SDS011;6974;53.606;9.872;2023-12-20T09:55:08;3.97;;;1.33;;
13805;SDS011;6974;53.606;9.872;2023-12-20T09:57:35;2.80;;;1.13;;
13805;SDS011;6974;53.606;9.872;2023-12-20T10:00:02;3.83;;;1.40;;
13805;SDS011;6974;53.606;9.872;2023-12-20T10:02:29;4.77;;;1.43;;
13805;SDS011;6974;53.606;9.872;2023-12-20T10:04:57;2.87;;;1.20;;
13805;SDS011;6974;53.606;9.872;2023-12-20T10:07:26;2.07;;;1.20;;
13805;SDS011;6974;53.606;9.872;2023-12-20T10:09:54;2.07;;;1.20;;
13805;SDS011;6974;53.606;9.872;2023-12-20T10:12:21;3.10;;;1.50;;
13805;SDS011;6974;53.606;9.872;2023-12-20T10:14:48;2.50;;;1.40;;
13805;SDS011;6974;53.606;9.872;2023-12-20T10:17:16;1.13;;;1.03;;
13805;SDS011;6974;53.606;9.872;2023-12-20T10:19:43;4.00;;;1.03;;
13805;SDS011;6974;53.606;9.872;2023-12-20T10:22:10;3.67;;;1.10;;
13805;SDS011;6974;53.606;9.872;2023-12-20T10:24:38;1.40;;;0.87;;
13805;SDS011;6974;53.606;9.872;2023-12-20T10:27:07;5.53;;;1.50;;
13805;SDS011;6974;53.606;9.872;2023-12-20T10:29:35;3.07;;;1.20;;
13805;SDS011;6974;53.606;9.872;2023-12-20T10:34:47;2.27;;;1.20;;
13805;SDS011;6974;53.606;9.872;2023-12-20T10:37:14;3.47;;;1.37;;
13805;SDS011;6974;53.606;9.872;2023-12-20T10:39:43;3.20;;;1.40;;
13805;SDS011;6974;53.606;9.872;2023-12-20T10:42:10;5.67;;;1.50;;
13805;SDS011;6974;53.606;9.872;2023-12-20T10:44:38;3.33;;;1.43;;
13805;SDS011;6974;53.606;9.872;2023-12-20T10:47:05;2.83;;;1.37;;
13805;SDS011;6974;53.606;9.872;2023-12-20T10:49:36;3.90;;;1.60;;
13805;SDS011;6974;53.606;9.872;2023-12-20T10:52:04;3.97;;;1.57;;
13805;SDS011;6974;53.606;9.872;2023-12-20T10:54:32;6.30;;;1.63;;
13805;SDS011;6974;53.606;9.872;2023-12-20T10:57:00;4.17;;;1.73;;
13805;SDS011;6974;53.606;9.872;2023-12-20T10:59:31;4.60;;;1.33;;
13805;SDS011;6974;53.606;9.872;2023-12-20T11:02:01;8.17;;;2.00;;
13805;SDS011;6974;53.606;9.872;2023-12-20T11:04:31;5.33;;;2.10;;
13805;SDS011;6974;53.606;9.872;2023-12-20T11:07:06;8.17;;;1.77;;
13805;SDS011;6974;53.606;9.872;2023-12-20T11:09:43;5.00;;;1.80;;
13805;SDS011;6974;53.606;9.872;2023-12-20T11:12:16;8.47;;;1.93;;
13805;SDS011;6974;53.606;9.872;2023-12-20T11:14:51;6.43;;;1.80;;
13805;SDS011;6974;53.606;9.872;2023-12-20T11:17:20;6.80;;;1.90;;
13805;SDS011;6974;53.606;9.872;2023-12-20T11:20:05;9.57;;;2.10;;
13805;SDS011;6974;53.606;9.872;2023-12-20T11:22:37;7.27;;;2.50;;
13805;SDS011;6974;53.606;9.872;2023-12-20T11:25:07;9.13;;;2.53;;
13805;SDS011;6974;53.606;9.872;2023-12-20T11:27:36;5.47;;;1.90;;
13805;SDS011;6974;53.606;9.872;2023-12-20T11:30:07;5.33;;;1.83;;
13805;SDS011;6974;53.606;9.872;2023-12-20T11:32:35;5.30;;;1.77;;
13805;SDS011;6974;53.606;9.872;2023-12-20T11:35:16;7.70;;;2.73;;
13805;SDS011;6974;53.606;9.872;2023-12-20T11:37:44;8.10;;;2.03;;
13805;SDS011;6974;53.606;9.872;2023-12-20T11:40:13;9.97;;;2.00;;
13805;SDS011;6974;53.606;9.872;2023-12-20T11:42:43;13.83;;;2.40;;
13805;SDS011;6974;53.606;9.872;2023-12-20T11:45:14;8.13;;;2.23;;
13805;SDS011;6974;53.606;9.872;2023-12-20T11:47:46;7.10;;;2.60;;
13805;SDS011;6974;53.606;9.872;2023-12-20T11:50:14;11.23;;;2.80;;
13805;SDS011;6974;53.606;9.872;2023-12-20T11:52:41;9.80;;;2.20;;
13805;SDS011;6974;53.606;9.872;2023-12-20T11:55:08;5.20;;;2.40;;
13805;SDS011;6974;53.606;9.872;2023-12-20T11:57:35;12.03;;;3.23;;
13805;SDS011;6974;53.606;9.872;2023-12-20T12:00:04;10.27;;;2.73;;
13805;SDS011;6974;53.606;9.872;2023-12-20T12:02:32;8.47;;;2.50;;
13805;SDS011;6974;53.606;9.872;2023-12-20T12:04:59;11.33;;;3.10;;
13805;SDS011;6974;53.606;9.872;2023-12-20T12:07:26;11.30;;;2.93;;
13805;SDS011;6974;53.606;9.872;2023-12-20T12:09:53;7.97;;;2.80;;
13805;SDS011;6974;53.606;9.872;2023-12-20T12:12:19;11.67;;;2.93;;
13805;SDS011;6974;53.606;9.872;2023-12-20T12:14:47;10.87;;;2.60;;
13805;SDS011;6974;53.606;9.872;2023-12-20T12:17:16;11.37;;;3.60;;
13805;SDS011;6974;53.606;9.872;2023-12-20T12:19:43;13.07;;;2.90;;
13805;SDS011;6974;53.606;9.872;2023-12-20T12:22:10;14.40;;;2.97;;
13805;SDS011;6974;53.606;9.872;2023-12-20T12:24:39;10.73;;;2.80;;
13805;SDS011;6974;53.606;9.872;2023-12-20T12:27:06;9.87;;;2.97;;
13805;SDS011;6974;53.606;9.872;2023-12-20T12:29:33;13.40;;;3.20;;
13805;SDS011;6974;53.606;9.872;2023-12-20T12:32:00;14.97;;;3.47;;
13805;SDS011;6974;53.606;9.872;2023-12-20T12:34:28;10.03;;;2.80;;
13805;SDS011;6974;53.606;9.872;2023-12-20T12:36:55;13.67;;;3.60;;
13805;SDS011;6974;53.606;9.872;2023-12-20T12:39:23;11.40;;;3.20;;
13805;SDS011;6974;53.606;9.872;2023-12-20T12:41:51;12.20;;;3.60;;
13805;SDS011;6974;53.606;9.872;2023-12-20T12:44:17;18.07;;;3.40;;
13805;SDS011;6974;53.606;9.872;2023-12-20T12:46:44;11.90;;;3.27;;
13805;SDS011;6974;53.606;9.872;2023-12-20T12:49:12;11.17;;;3.27;;
13805;SDS011;6974;53.606;9.872;2023-12-20T12:51:40;13.93;;;3.17;;
13805;SDS011;6974;53.606;9.872;2023-12-20T12:54:08;13.20;;;3.10;;
13805;SDS011;6974;53.606;9.872;2023-12-20T12:56:35;13.17;;;3.43;;
13805;SDS011;6974;53.606;9.872;2023-12-20T12:59:02;14.43;;;3.23;;
13805;SDS011;6974;53.606;9.872;2023-12-20T13:01:29;10.80;;;3.40;;
13805;SDS011;6974;53.606;9.872;2023-12-20T13:03:56;15.47;;;3.60;;
13805;SDS011;6974;53.606;9.872;2023-12-20T13:06:22;15.73;;;4.17;;
13805;SDS011;6974;53.606;9.872;2023-12-20T13:08:51;12.37;;;3.00;;
13805;SDS011;6974;53.606;9.872;2023-12-20T13:11:17;11.87;;;3.70;;
13805;SDS011;6974;53.606;9.872;2023-12-20T13:13:44;11.07;;;3.50;;
13805;SDS011;6974;53.606;9.872;2023-12-20T13:16:12;15.00;;;3.87;;
13805;SDS011;6974;53.606;9.872;2023-12-20T13:18:39;14.07;;;3.60;;
13805;SDS011;6974;53.606;9.872;2023-12-20T13:21:07;12.13;;;3.67;;
13805;SDS011;6974;53.606;9.872;2023-12-20T13:23:34;17.57;;;4.50;;
13805;SDS011;6974;53.606;9.872;2023-12-20T13:26:02;9.53;;;3.20;;
13805;SDS011;6974;53.606;9.872;2023-12-20T13:28:29;11.93;;;3.57;;
13805;SDS011;6974;53.606;9.872;2023-12-20T13:30:56;12.80;;;4.10;;
13805;SDS011;6974;53.606;9.872;2023-12-20T13:33:23;13.03;;;4.13;;
13805;SDS011;6974;53.606;9.872;2023-12-20T13:35:50;16.30;;;4.50;;
13805;SDS011;6974;53.606;9.872;2023-12-20T13:38:16;16.03;;;4.57;;
13805;SDS011;6974;53.606;9.872;2023-12-20T13:40:43;18.60;;;4.60;;
13805;SDS011;6974;53.606;9.872;2023-12-20T13:43:12;17.83;;;4.23;;
13805;SDS011;6974;53.606;9.872;2023-12-20T13:45:39;15.87;;;4.40;;
13805;SDS011;6974;53.606;9.872;2023-12-20T13:48:07;17.10;;;4.70;;
13805;SDS011;6974;53.606;9.872;2023-12-20T13:50:33;14.60;;;4.43;;
13805;SDS011;6974;53.606;9.872;2023-12-20T13:53:00;18.33;;;4.40;;
13805;SDS011;6974;53.606;9.872;2023-12-20T13:55:29;20.13;;;5.00;;
13805;SDS011;6974;53.606;9.872;2023-12-20T13:57:56;17.17;;;4.57;;
13805;SDS011;6974;53.606;9.872;2023-12-20T14:00:24;23.67;;;5.53;;
13805;SDS011;6974;53.606;9.872;2023-12-20T14:02:51;21.70;;;5.87;;
13805;SDS011;6974;53.606;9.872;2023-12-20T14:05:17;18.83;;;5.70;;
13805;SDS011;6974;53.606;9.872;2023-12-20T14:07:44;16.53;;;5.00;;
13805;SDS011;6974;53.606;9.872;2023-12-20T14:10:11;21.73;;;5.23;;
13805;SDS011;6974;53.606;9.872;2023-12-20T14:12:39;20.57;;;4.83;;
13805;SDS011;6974;53.606;9.872;2023-12-20T14:15:06;17.20;;;4.97;;
13805;SDS011;6974;53.606;9.872;2023-12-20T14:17:37;11.07;;;4.60;;
13805;SDS011;6974;53.606;9.872;2023-12-20T14:20:04;19.17;;;5.03;;
13805;SDS011;6974;53.606;9.872;2023-12-20T14:22:32;18.37;;;5.60;;
13805;SDS011;6974;53.606;9.872;2023-12-20T14:24:59;15.90;;;4.77;;
13805;SDS011;6974;53.606;9.872;2023-12-20T14:27:26;18.37;;;5.00;;
13805;SDS011;6974;53.606;9.872;2023-12-20T14:29:53;15.73;;;4.67;;
13805;SDS011;6974;53.606;9.872;2023-12-20T14:32:20;12.20;;;4.43;;
13805;SDS011;6974;53.606;9.872;2023-12-20T14:34:49;18.13;;;4.20;;
13805;SDS011;6974;53.606;9.872;2023-12-20T14:37:16;11.90;;;4.60;;
13805;SDS011;6974;53.606;9.872;2023-12-20T14:39:42;16.23;;;4.53;;
13805;SDS011;6974;53.606;9.872;2023-12-20T14:42:09;13.50;;;4.03;;
13805;SDS011;6974;53.606;9.872;2023-12-20T14:44:38;12.83;;;4.43;;
13805;SDS011;6974;53.606;9.872;2023-12-20T14:47:05;12.07;;;4.43;;
13805;SDS011;6974;53.606;9.872;2023-12-20T14:49:33;11.60;;;4.03;;
13805;SDS011;6974;53.606;9.872;2023-12-20T14:52:02;15.20;;;4.33;;
13805;SDS011;6974;53.606;9.872;2023-12-20T14:54:29;15.17;;;4.53;;
13805;SDS011;6974;53.606;9.872;2023-12-20T14:56:57;11.80;;;4.50;;